Check out our new BloomSky Weather System.

Active alerts


No alerts


Thunder radar  blitzortung!


Rain radar more information rain snow radar


Visit our other weather sites:

Template documentation
and downloads

And another site



Weather Underground History page Text

Daily Summary for February 20, 2017 Units:  Metric    English   Both
« Previous Day
Next Day »
Daily Weekly Monthly Yearly Custom
  High: Low: Average:
Temperature: -17.8 °C 15 °C 17 °C
Dew Point: -17.8 °C 15 °C 16.7 °C
Humidity: Humidity % 87 % 98 %
Wind Speed: 0 km/h 0 km/h 3.1 km/h
Wind Gust: 0 km/h - -
Wind:- - South
Pressure: 0 hPa 1011.1 hPa -
Precipitation: 50.29 mm    
Historical Graphs
 
 
Tabular Data for February 20, 2017
Time Temperature Dew Point Pressure Wind Wind Speed Wind Gust Humidity Rainfall Rate (Hourly)
-17.8 °C -17.8 °C 0 hPa Calm     Humidity % 0 mm
00:02 21.3 °C 21 °C 1012.1 hPa ESE 6.4 km/h 14.5 km/h 98 % 0 mm
00:07 21.3 °C 21 °C 1012.1 hPa ESE 4.8 km/h 14.5 km/h 98 % 0 mm
00:12 21.3 °C 21 °C 1012.1 hPa Calm   11.3 km/h 98 % 0 mm
00:17 21.3 °C 21 °C 1012.1 hPa SE 6.4 km/h 11.3 km/h 98 % 0 mm
00:22 21.3 °C 21 °C 1012.1 hPa SE 3.2 km/h 11.3 km/h 98 % 0 mm
00:27 21.3 °C 21 °C 1012.1 hPa South 3.2 km/h 9.7 km/h 98 % 0 mm
00:32 21.3 °C 21 °C 1012.1 hPa SE 3.2 km/h 8 km/h 98 % 0 mm
00:37 21.3 °C 21 °C 1012.1 hPa ESE 3.2 km/h 8 km/h 98 % 0 mm
00:42 21.3 °C 21 °C 1012.1 hPa ESE 6.4 km/h 9.7 km/h 98 % 0 mm
00:47 21.3 °C 21 °C 1012.1 hPa ESE 6.4 km/h 9.7 km/h 98 % 0 mm
00:52 21.3 °C 21 °C 1011.7 hPa ESE 4.8 km/h 11.3 km/h 98 % 0 mm
00:57 21.3 °C 21 °C 1011.7 hPa SE 4.8 km/h 11.3 km/h 98 % 0 mm
01:02 21.3 °C 21 °C 1011.4 hPa SE 9.7 km/h 14.5 km/h 98 % 0 mm
01:07 21.3 °C 21 °C 1011.4 hPa SE 6.4 km/h 14.5 km/h 98 % 0 mm
01:12 21.3 °C 21 °C 1011.4 hPa SSE 3.2 km/h 14.5 km/h 98 % 0 mm
01:17 21.3 °C 21 °C 1011.4 hPa ESE 1.6 km/h 12.9 km/h 98 % 0 mm
01:22 21.2 °C 20.9 °C 1011.4 hPa SE 8 km/h 12.9 km/h 98 % 0 mm
01:27 21.2 °C 20.9 °C 1011.4 hPa ESE 4.8 km/h 11.3 km/h 98 % 0 mm
01:32 21.2 °C 20.9 °C 1011.1 hPa ENE 3.2 km/h 11.3 km/h 98 % 0 mm
01:37 21.2 °C 20.9 °C 1011.1 hPa SSE 4.8 km/h 11.3 km/h 98 % 0 mm
01:43 21.1 °C 20.8 °C 1011.4 hPa East 14.5 km/h 17.7 km/h 98 % 0 mm
01:48 21.2 °C 20.9 °C 1011.4 hPa SE 11.3 km/h 17.7 km/h 98 % 0 mm
01:53 21.2 °C 20.9 °C 1011.7 hPa SE 4.8 km/h 17.7 km/h 98 % 0 mm
01:58 21.2 °C 20.9 °C 1011.7 hPa SSE 6.4 km/h 14.5 km/h 98 % 0 mm
02:03 21.2 °C 20.7 °C 1011.7 hPa SSE 9.7 km/h 14.5 km/h 97 % 0 mm
02:08 21.3 °C 20.8 °C 1012.1 hPa SE 6.4 km/h 16.1 km/h 97 % 0 mm
02:13 21.4 °C 20.9 °C 1012.1 hPa South 4.8 km/h 16.1 km/h 97 % 0 mm
02:18 21.4 °C 20.7 °C 1012.4 hPa SSE 8 km/h 16.1 km/h 96 % 0 mm
02:23 21.5 °C 20.8 °C 1012.4 hPa SSW 3.2 km/h 12.9 km/h 96 % 0 mm
02:28 21.5 °C 20.8 °C 1012.1 hPa SSE 3.2 km/h 11.3 km/h 96 % 0 mm
02:33 21.6 °C 20.8 °C 1012.1 hPa SE 3.2 km/h 11.3 km/h 95 % 0 mm
02:38 21.6 °C 20.8 °C 1012.1 hPa SSE 3.2 km/h 11.3 km/h 95 % 0 mm
02:43 21.7 °C 20.9 °C 1012.1 hPa SE 6.4 km/h 11.3 km/h 95 % 0 mm
02:48 21.7 °C 20.9 °C 1011.7 hPa ENE 9.7 km/h 9.7 km/h 95 % 0 mm
02:53 21.7 °C 20.7 °C 1011.7 hPa SSE 6.4 km/h 9.7 km/h 94 % 0 mm
02:58 21.8 °C 20.8 °C 1012.1 hPa SE 6.4 km/h 16.1 km/h 94 % 0 mm
03:03 21.8 °C 20.8 °C 1012.1 hPa SW 3.2 km/h 16.1 km/h 94 % 0 mm
03:08 21.8 °C 20.8 °C 1012.1 hPa SSE 4.8 km/h 16.1 km/h 94 % 0 mm
03:13 21.8 °C 20.8 °C 1012.1 hPa SE 4.8 km/h 11.3 km/h 94 % 0 mm
03:18 21.8 °C 20.6 °C 1011.7 hPa SE 4.8 km/h 12.9 km/h 93 % 0 mm
03:23 21.8 °C 20.6 °C 1011.7 hPa SE 9.7 km/h 14.5 km/h 93 % 0 mm
03:28 21.8 °C 20.6 °C 1012.1 hPa East 6.4 km/h 14.5 km/h 93 % 0 mm
03:33 21.8 °C 20.6 °C 1012.1 hPa ESE 4.8 km/h 14.5 km/h 93 % 0 mm
03:38 21.8 °C 20.6 °C 1012.1 hPa ESE 6.4 km/h 11.3 km/h 93 % 0 mm
03:43 21.8 °C 20.6 °C 1012.1 hPa SSE 3.2 km/h 11.3 km/h 93 % 0 mm
03:48 21.8 °C 20.6 °C 1012.1 hPa ESE 3.2 km/h 9.7 km/h 93 % 0 mm
03:54 21.8 °C 20.6 °C 1012.1 hPa SE 4.8 km/h 9.7 km/h 93 % 0 mm
03:59 21.8 °C 20.6 °C 1011.7 hPa SSE 3.2 km/h 9.7 km/h 93 % 0 mm
04:04 21.8 °C 20.6 °C 1011.7 hPa East 3.2 km/h 9.7 km/h 93 % 0 mm
04:09 21.8 °C 20.6 °C 1011.7 hPa ESE 4.8 km/h 9.7 km/h 93 % 0 mm
04:14 21.8 °C 20.6 °C 1011.4 hPa SE 1.6 km/h 8 km/h 93 % 0 mm
04:19 21.8 °C 20.6 °C 1011.4 hPa Calm   8 km/h 93 % 0 mm
04:24 21.8 °C 20.6 °C 1011.4 hPa Calm   6.4 km/h 93 % 0 mm
04:29 21.8 °C 20.6 °C 1011.4 hPa Calm   4.8 km/h 93 % 0 mm
04:34 21.7 °C 20.5 °C 1011.4 hPa Calm   4.8 km/h 93 % 0 mm
04:39 21.7 °C 20.5 °C 1011.7 hPa NW 11.3 km/h 11.3 km/h 93 % 0 mm
04:44 19.8 °C 17.6 °C 1011.7 hPa NW 14.5 km/h 14.5 km/h 87 % 0 mm
04:49 18.8 °C 17.1 °C 1012.1 hPa NW 4.8 km/h 17.7 km/h 90 % 0 mm
04:54 18.4 °C 16.9 °C 1012.1 hPa NW 6.4 km/h 17.7 km/h 91 % 0 mm
04:59 18.2 °C 16.9 °C 1012.1 hPa NW 4.8 km/h 17.7 km/h 92 % 0 mm
05:04 18 °C 16.9 °C 1012.1 hPa NNW 4.8 km/h 14.5 km/h 93 % 0 mm
05:09 17.8 °C 16.7 °C 1012.1 hPa NW 8 km/h 14.5 km/h 93 % 0 mm
05:14 17.7 °C 16.7 °C 1012.4 hPa NW 3.2 km/h 14.5 km/h 94 % 0 mm
05:19 17.7 °C 16.7 °C 1012.4 hPa NNW 3.2 km/h 14.5 km/h 94 % 0 mm
05:24 17.6 °C 16.6 °C 1012.4 hPa WNW 3.2 km/h 14.5 km/h 94 % 0 mm
05:29 17.6 °C 16.8 °C 1012.4 hPa NNW 3.2 km/h 11.3 km/h 95 % 0 mm
05:34 17.6 °C 16.8 °C 1012.1 hPa NW 3.2 km/h 9.7 km/h 95 % 0 mm
05:39 17.5 °C 16.7 °C 1012.4 hPa NW 1.6 km/h 12.9 km/h 95 % 0 mm
05:44 17.4 °C 16.6 °C 1012.4 hPa WNW 8 km/h 12.9 km/h 95 % 0 mm
05:49 17.4 °C 16.6 °C 1012.4 hPa Calm   16.1 km/h 95 % 0 mm
05:54 17.4 °C 16.6 °C 1012.4 hPa NNE 9.7 km/h 16.1 km/h 95 % 0 mm
06:00 17.4 °C 16.6 °C 1012.8 hPa NW 3.2 km/h 16.1 km/h 95 % 0 mm
06:05 17.4 °C 16.8 °C 1013.1 hPa Calm   12.9 km/h 96 % 0 mm
06:10 17.4 °C 16.8 °C 1013.4 hPa NW 1.6 km/h 12.9 km/h 96 % 3.3 mm
06:15 17.2 °C 16.6 °C 1013.8 hPa NW 16.1 km/h 16.1 km/h 96 % 4.32 mm
06:20 16.9 °C 16.1 °C 1014.1 hPa SSE 4.8 km/h 24.1 km/h 95 % 4.32 mm
06:25 16.3 °C 15.5 °C 1014.8 hPa NNW 9.7 km/h 30.6 km/h 95 % 4.32 mm
06:30 15.9 °C 15.3 °C 1014.8 hPa ENE 1.6 km/h 30.6 km/h 96 % 4.32 mm
06:35 15.9 °C 15.3 °C 1015.1 hPa WSW 11.3 km/h 30.6 km/h 96 % 7.11 mm
06:40 15.7 °C 15.1 °C 1015.5 hPa WNW 11.3 km/h 25.7 km/h 96 % 16.51 mm
06:45 15.7 °C 15.2 °C 1015.1 hPa WNW 8 km/h 25.7 km/h 97 % 21.84 mm
06:50 15.7 °C 15.2 °C 1014.8 hPa ENE 8 km/h 24.1 km/h 97 % 23.11 mm
06:55 15.7 °C 15.4 °C 1014.8 hPa NW 6.4 km/h 24.1 km/h 98 % 24.13 mm
07:00 15.8 °C 15.5 °C 1015.1 hPa NNW 3.2 km/h 17.7 km/h 98 % 23.88 mm
07:05 15.7 °C 15.4 °C 1015.1 hPa NE 1.6 km/h 17.7 km/h 98 % 20.83 mm
07:07 15.7 °C 15.4 °C 1015.1 hPa NW 3.2 km/h 17.7 km/h 98 % 20.83 mm
07:12 15.8 °C 15.5 °C 1015.1 hPa NW 6.4 km/h 11.3 km/h 98 % 20.57 mm
07:17 15.8 °C 15.5 °C 1014.8 hPa NW 6.4 km/h 11.3 km/h 98 % 21.08 mm
07:22 15.8 °C 15.5 °C 1015.1 hPa NNE 4.8 km/h 16.1 km/h 98 % 21.34 mm
07:27 15.8 °C 15.5 °C 1015.1 hPa West 4.8 km/h 16.1 km/h 98 % 21.84 mm
07:32 15.8 °C 15.5 °C 1015.5 hPa North 6.4 km/h 16.1 km/h 98 % 22.1 mm
07:37 15.8 °C 15.5 °C 1015.5 hPa NE 3.2 km/h 14.5 km/h 98 % 19.56 mm
07:43 15.8 °C 15.5 °C 1015.5 hPa WNW 3.2 km/h 11.3 km/h 98 % 10.41 mm
07:48 15.8 °C 15.5 °C 1015.5 hPa North 3.2 km/h 11.3 km/h 98 % 6.1 mm
07:53 15.8 °C 15.6 °C 1015.5 hPa North 1.6 km/h 11.3 km/h 99 % 5.33 mm
07:58 15.8 °C 15.6 °C 1016.1 hPa Calm   9.7 km/h 99 % 5.08 mm
08:03 15.8 °C 15.6 °C 1016.1 hPa Calm   8 km/h 99 % 5.33 mm
08:08 15.9 °C 15.7 °C 1015.8 hPa Calm   8 km/h 99 % 6.1 mm
08:13 15.9 °C 15.7 °C 1015.8 hPa Calm   6.4 km/h 99 % 6.86 mm
08:18 15.9 °C 15.7 °C 1015.8 hPa NNE 1.6 km/h 6.4 km/h 99 % 6.6 mm
08:23 15.9 °C 15.7 °C 1016.1 hPa NNW 1.6 km/h 6.4 km/h 99 % 6.86 mm
08:28 15.8 °C 15.6 °C 1016.1 hPa NNW 1.6 km/h 6.4 km/h 99 % 6.6 mm
08:33 15.9 °C 15.7 °C 1016.5 hPa Calm   6.4 km/h 99 % 6.86 mm
08:38 15.9 °C 15.7 °C 1016.5 hPa Calm   3.2 km/h 99 % 7.11 mm
08:43 15.9 °C 15.7 °C 1016.5 hPa Calm   3.2 km/h 99 % 6.86 mm
08:48 16 °C 15.8 °C 1016.1 hPa NNW 1.6 km/h 3.2 km/h 99 % 7.11 mm
08:53 16 °C 15.8 °C 1016.1 hPa NNW 1.6 km/h 3.2 km/h 99 % 7.37 mm
08:58 16 °C 15.8 °C 1016.1 hPa North 1.6 km/h 6.4 km/h 99 % 7.37 mm
09:03 15.9 °C 15.7 °C 1016.1 hPa NW 4.8 km/h 8 km/h 99 % 7.37 mm
09:08 16 °C 15.8 °C 1015.8 hPa NNE 6.4 km/h 8 km/h 99 % 7.37 mm
09:13 16 °C 15.8 °C 1015.5 hPa NW 3.2 km/h 11.3 km/h 99 % 6.6 mm
09:18 16 °C 15.8 °C 1015.8 hPa Calm   11.3 km/h 99 % 6.86 mm
09:23 16 °C 15.8 °C 1016.1 hPa Calm   11.3 km/h 99 % 6.86 mm
09:28 16.1 °C 15.9 °C 1016.5 hPa Calm   9.7 km/h 99 % 6.86 mm
09:33 16.1 °C 15.9 °C 1016.5 hPa Calm   9.7 km/h 99 % 6.35 mm
09:38 16.1 °C 15.9 °C 1016.8 hPa Calm   3.2 km/h 99 % 6.35 mm
09:40 16.2 °C 16 °C 1016.5 hPa Calm   3.2 km/h 99 % 6.35 mm
09:45 16.2 °C 16 °C 1016.1 hPa NNW 3.2 km/h 8 km/h 99 % 5.84 mm
09:50 16.2 °C 16 °C 1016.1 hPa NNW 1.6 km/h 8 km/h 99 % 5.33 mm
09:55 16.2 °C 16 °C 1016.8 hPa ENE 1.6 km/h 8 km/h 99 % 4.83 mm
10:00 16.2 °C 16 °C 1016.8 hPa Calm   8 km/h 99 % 4.57 mm
10:05 16.2 °C 16 °C 1016.8 hPa Calm   6.4 km/h 99 % 4.06 mm
10:10 16.3 °C 16.1 °C 1016.8 hPa Calm   3.2 km/h 99 % 3.81 mm
10:16 16.3 °C 16.1 °C 1016.5 hPa North 4.8 km/h 4.8 km/h 99 % 3.56 mm
10:21 16.3 °C 16.1 °C 1016.5 hPa NE 1.6 km/h 6.4 km/h 99 % 3.56 mm
10:26 16.3 °C 16.1 °C 1016.5 hPa Calm   6.4 km/h 99 % 3.56 mm
10:31 16.3 °C 16.1 °C 1016.5 hPa Calm   6.4 km/h 99 % 3.56 mm
10:36 16.3 °C 16.1 °C 1016.5 hPa NNW 1.6 km/h 6.4 km/h 99 % 3.56 mm
10:41 16.3 °C 16.1 °C 1016.5 hPa North 1.6 km/h 6.4 km/h 99 % 3.3 mm
10:46 16.3 °C 16.1 °C 1016.5 hPa Calm   6.4 km/h 99 % 3.3 mm
10:51 16.3 °C 16.1 °C 1016.5 hPa NW 1.6 km/h 8 km/h 99 % 3.3 mm
10:56 16.3 °C 16.1 °C 1016.5 hPa North 1.6 km/h 8 km/h 99 % 3.05 mm
11:01 16.3 °C 16.1 °C 1016.5 hPa NNE 3.2 km/h 9.7 km/h 99 % 3.05 mm
11:06 16.3 °C 16.1 °C 1016.1 hPa NE 4.8 km/h 9.7 km/h 99 % 3.05 mm
11:11 16.2 °C 16 °C 1015.8 hPa NNW 3.2 km/h 9.7 km/h 99 % 2.79 mm
11:16 16.2 °C 16 °C 1016.1 hPa North 4.8 km/h 11.3 km/h 99 % 2.79 mm
11:21 16.2 °C 16 °C 1016.1 hPa Calm   11.3 km/h 99 % 2.29 mm
11:26 16.3 °C 16.1 °C 1016.1 hPa NNW 4.8 km/h 11.3 km/h 99 % 2.29 mm
11:31 16.3 °C 16.1 °C 1015.5 hPa NE 3.2 km/h 11.3 km/h 99 % 2.29 mm
11:36 16.2 °C 16 °C 1015.5 hPa NNW 4.8 km/h 12.9 km/h 99 % 2.03 mm
11:41 16.3 °C 16.1 °C 1015.1 hPa NNE 4.8 km/h 12.9 km/h 99 % 2.03 mm
11:46 16.4 °C 16.2 °C 1014.8 hPa Calm   12.9 km/h 99 % 1.78 mm
11:51 16.4 °C 16.2 °C 1015.1 hPa NNW 3.2 km/h 8 km/h 99 % 1.52 mm
11:56 16.3 °C 16.1 °C 1014.8 hPa NNE 6.4 km/h 11.3 km/h 99 % 1.78 mm
12:02 16.2 °C 16 °C 1015.1 hPa North 3.2 km/h 11.3 km/h 99 % 1.52 mm
12:07 16.2 °C 16 °C 1015.1 hPa North 3.2 km/h 11.3 km/h 99 % 1.27 mm
12:12 16.2 °C 16 °C 1015.1 hPa NE 1.6 km/h 11.3 km/h 99 % 1.27 mm
12:17 16.1 °C 15.9 °C 1014.4 hPa North 4.8 km/h 16.1 km/h 99 % 1.02 mm
12:22 16.1 °C 15.9 °C 1014.4 hPa ENE 4.8 km/h 16.1 km/h 99 % 1.02 mm
12:27 16.1 °C 15.9 °C 1014.4 hPa Calm   16.1 km/h 99 % 1.02 mm
12:32 16.1 °C 15.9 °C 1014.1 hPa East 3.2 km/h 12.9 km/h 99 % 0.76 mm
12:37 16.1 °C 15.9 °C 1014.4 hPa NNW 3.2 km/h 12.9 km/h 99 % 0.76 mm
12:42 16.1 °C 15.9 °C 1014.1 hPa East 4.8 km/h 12.9 km/h 99 % 0.76 mm
12:47 16.1 °C 15.9 °C 1014.1 hPa ENE 3.2 km/h 14.5 km/h 99 % 1.02 mm
12:52 16.1 °C 15.9 °C 1014.1 hPa North 3.2 km/h 14.5 km/h 99 % 1.02 mm
12:57 16.1 °C 15.9 °C 1014.4 hPa North 1.6 km/h 14.5 km/h 99 % 1.02 mm
13:02 16.1 °C 15.9 °C 1014.4 hPa ESE 12.9 km/h 12.9 km/h 99 % 1.02 mm
13:07 16 °C 15.8 °C 1014.4 hPa NNW 3.2 km/h 16.1 km/h 99 % 1.02 mm
13:12 16 °C 15.8 °C 1014.1 hPa NE 3.2 km/h 16.1 km/h 99 % 1.02 mm
13:17 15.9 °C 15.7 °C 1013.8 hPa ENE 1.6 km/h 16.1 km/h 99 % 1.02 mm
13:22 15.9 °C 15.7 °C 1013.8 hPa Calm   12.9 km/h 99 % 1.02 mm
13:27 16 °C 15.8 °C 1013.4 hPa Calm   16.1 km/h 99 % 1.02 mm
13:32 16 °C 15.8 °C 1013.4 hPa ENE 3.2 km/h 16.1 km/h 99 % 1.27 mm
13:37 16 °C 15.8 °C 1013.1 hPa East 1.6 km/h 16.1 km/h 99 % 1.52 mm
13:42 16.1 °C 15.9 °C 1013.1 hPa ENE 3.2 km/h 12.9 km/h 99 % 1.78 mm
13:44 16.1 °C 15.9 °C 1013.1 hPa NE 11.3 km/h 12.9 km/h 99 % 1.78 mm
13:49 16.1 °C 15.9 °C 1013.1 hPa East 6.4 km/h 12.9 km/h 99 % 1.52 mm
13:54 16 °C 15.8 °C 1013.1 hPa ESE 1.6 km/h 12.9 km/h 99 % 1.78 mm
13:59 16 °C 15.8 °C 1013.4 hPa East 6.4 km/h 11.3 km/h 99 % 1.52 mm
14:04 15.9 °C 15.7 °C 1013.4 hPa SSW 6.4 km/h 11.3 km/h 99 % 1.52 mm
14:09 15.9 °C 15.7 °C 1013.4 hPa South 4.8 km/h 11.3 km/h 99 % 1.52 mm
14:14 15.8 °C 15.6 °C 1013.4 hPa ENE 6.4 km/h 9.7 km/h 99 % 1.52 mm
14:19 15.8 °C 15.6 °C 1012.8 hPa East 3.2 km/h 9.7 km/h 99 % 1.78 mm
14:24 15.8 °C 15.6 °C 1012.8 hPa ENE 6.4 km/h 9.7 km/h 99 % 1.52 mm
14:29 15.8 °C 15.6 °C 1012.4 hPa East 8 km/h 11.3 km/h 99 % 1.78 mm
14:34 15.8 °C 15.6 °C 1012.4 hPa Calm   12.9 km/h 99 % 1.52 mm
14:39 15.8 °C 15.6 °C 1012.4 hPa NNW 4.8 km/h 19.3 km/h 99 % 1.52 mm
14:44 15.8 °C 15.6 °C 1012.1 hPa North 3.2 km/h 19.3 km/h 99 % 1.02 mm
14:49 15.8 °C 15.6 °C 1012.1 hPa NE 8 km/h 19.3 km/h 99 % 1.02 mm
14:55 15.8 °C 15.6 °C 1012.1 hPa ESE 4.8 km/h 14.5 km/h 99 % 0.76 mm
15:00 15.8 °C 15.6 °C 1012.1 hPa ENE 4.8 km/h 16.1 km/h 99 % 0.76 mm
15:05 15.7 °C 15.5 °C 1012.1 hPa ESE 8 km/h 22.5 km/h 99 % 1.02 mm
15:10 15.7 °C 15.5 °C 1011.7 hPa ESE 4.8 km/h 22.5 km/h 99 % 1.02 mm
15:15 15.8 °C 15.6 °C 1012.8 hPa NW 4.8 km/h 22.5 km/h 99 % 0.76 mm
15:20 15.8 °C 15.6 °C 1013.1 hPa SSE 1.6 km/h 17.7 km/h 99 % 1.02 mm
15:25 15.8 °C 15.6 °C 1012.8 hPa NW 1.6 km/h 17.7 km/h 99 % 0.76 mm
15:30 15.9 °C 15.7 °C 1012.8 hPa Calm   17.7 km/h 99 % 0.76 mm
15:35 15.8 °C 15.6 °C 1013.1 hPa WNW 4.8 km/h 4.8 km/h 99 % 0.51 mm
15:40 15.8 °C 15.6 °C 1013.1 hPa WNW 1.6 km/h 9.7 km/h 99 % 0.51 mm
15:43 15.8 °C 15.6 °C 1013.8 hPa Calm   9.7 km/h 99 % 0.51 mm
15:48 15.9 °C 15.7 °C 1013.8 hPa Calm   9.7 km/h 99 % 0.51 mm
15:53 15.8 °C 15.6 °C 1013.4 hPa Calm   9.7 km/h 99 % 0.51 mm
15:58 15.8 °C 15.6 °C 1013.8 hPa WSW 1.6 km/h 9.7 km/h 99 % 0.51 mm
16:03 15.9 °C 15.7 °C 1014.1 hPa WSW 3.2 km/h 3.2 km/h 99 % 0.25 mm
16:08 15.9 °C 15.7 °C 1013.4 hPa Calm   4.8 km/h 99 % 0.25 mm
16:13 15.9 °C 15.7 °C 1012.8 hPa ENE 4.8 km/h 6.4 km/h 99 % 0.51 mm
16:18 15.9 °C 15.7 °C 1012.8 hPa Calm   6.4 km/h 99 % 0.25 mm
16:23 15.9 °C 15.7 °C 1013.4 hPa Calm   6.4 km/h 99 % 0.25 mm
16:28 15.9 °C 15.7 °C 1014.4 hPa Calm   6.4 km/h 99 % 0.25 mm
16:33 15.9 °C 15.7 °C 1013.4 hPa East 1.6 km/h 8 km/h 99 % 0.25 mm
16:38 16 °C 15.8 °C 1013.8 hPa South 1.6 km/h 8 km/h 99 % 0.25 mm
16:43 15.9 °C 15.7 °C 1014.1 hPa South 1.6 km/h 8 km/h 99 % 0.25 mm
16:48 15.9 °C 15.7 °C 1014.4 hPa Calm   6.4 km/h 99 % 0.25 mm
16:53 15.9 °C 15.7 °C 1013.8 hPa Calm   6.4 km/h 99 % 0.25 mm
16:58 16 °C 15.8 °C 1013.8 hPa Calm   6.4 km/h 99 % 0.25 mm
17:03 15.9 °C 15.7 °C 1013.1 hPa North 1.6 km/h 6.4 km/h 99 % 0.25 mm
17:08 16 °C 15.8 °C 1013.1 hPa East 1.6 km/h 3.2 km/h 99 % 0.25 mm
17:13 16.1 °C 15.9 °C 1013.1 hPa Calm   3.2 km/h 99 % 0 mm
17:18 16.1 °C 15.9 °C 1012.8 hPa Calm   3.2 km/h 99 % 0 mm
17:23 16.1 °C 15.9 °C 1012.4 hPa Calm   3.2 km/h 99 % 0 mm
17:29 16.1 °C 15.9 °C 1012.1 hPa Calm   3.2 km/h 99 % 0 mm
17:34 16.1 °C 15.9 °C 1013.1 hPa NW 1.6 km/h 6.4 km/h 99 % 0 mm
17:39 16.1 °C 15.9 °C 1013.8 hPa Calm   6.4 km/h 99 % 0 mm
17:44 16.1 °C 15.9 °C 1013.8 hPa Calm   6.4 km/h 99 % 0 mm
17:49 16.1 °C 15.9 °C 1013.4 hPa Calm   3.2 km/h 99 % 0 mm
17:54 16.2 °C 16 °C 1013.4 hPa WSW 1.6 km/h 3.2 km/h 99 % 0 mm
17:59 16.1 °C 15.9 °C 1013.4 hPa NW 1.6 km/h 1.6 km/h 99 % 0 mm
18:04 16.1 °C 15.9 °C 1013.1 hPa Calm   1.6 km/h 99 % 0 mm
18:09 16.1 °C 15.9 °C 1013.4 hPa WNW 1.6 km/h 3.2 km/h 99 % 0 mm
18:14 16.1 °C 15.9 °C 1014.1 hPa Calm   3.2 km/h 99 % 0 mm
18:19 16.1 °C 15.9 °C 1014.8 hPa SW 3.2 km/h 3.2 km/h 99 % 0 mm
18:24 16.1 °C 15.9 °C 1014.8 hPa South 4.8 km/h 6.4 km/h 99 % 0 mm
18:29 16.2 °C 16 °C 1014.8 hPa Calm   6.4 km/h 99 % 0 mm
18:34 16.2 °C 16 °C 1014.1 hPa Calm   6.4 km/h 99 % 0 mm
18:39 16.1 °C 15.9 °C 1013.8 hPa Calm   4.8 km/h 99 % 0 mm
18:40 16.1 °C 15.9 °C 1013.8 hPa Calm   4.8 km/h 99 % 0 mm
18:45 16.1 °C 15.9 °C 1013.4 hPa Calm   1.6 km/h 99 % 0 mm
18:50 16 °C 15.8 °C 1013.4 hPa Calm   1.6 km/h 99 % 0 mm
18:56 15.9 °C 15.7 °C 1014.4 hPa South 1.6 km/h 1.6 km/h 99 % 0 mm
19:01 15.9 °C 15.7 °C 1014.8 hPa Calm   3.2 km/h 99 % 0 mm
19:06 15.9 °C 15.7 °C 1014.8 hPa Calm   3.2 km/h 99 % 0 mm
19:11 15.9 °C 15.7 °C 1014.4 hPa Calm   3.2 km/h 99 % 0 mm
19:16 15.9 °C 15.7 °C 1014.4 hPa Calm   1.6 km/h 99 % 0 mm
19:21 15.9 °C 15.7 °C 1014.8 hPa Calm   1.6 km/h 99 % 0 mm
19:26 15.9 °C 15.7 °C 1014.4 hPa Calm   1.6 km/h 99 % 0 mm
19:31 15.9 °C 15.7 °C 1014.4 hPa Calm   1.6 km/h 99 % 0 mm
19:36 15.9 °C 15.7 °C 1014.8 hPa Calm   1.6 km/h 99 % 0 mm
19:41 15.9 °C 15.7 °C 1014.8 hPa Calm     99 % 0 mm
19:46 15.9 °C 15.7 °C 1015.1 hPa Calm     99 % 0 mm
19:51 15.8 °C 15.6 °C 1015.1 hPa Calm     99 % 0 mm
19:56 15.8 °C 15.6 °C 1015.1 hPa Calm     99 % 0 mm
20:01 15.8 °C 15.6 °C 1015.1 hPa Calm   1.6 km/h 99 % 0 mm
20:06 15.8 °C 15.6 °C 1014.8 hPa Calm   1.6 km/h 99 % 0 mm
20:11 15.9 °C 15.9 °C 1014.1 hPa Calm   1.6 km/h 100 % 0 mm
20:16 15.9 °C 15.9 °C 1014.4 hPa Calm   1.6 km/h 100 % 0 mm
20:21 15.9 °C 15.7 °C 1014.8 hPa Calm   1.6 km/h 99 % 0 mm
20:26 15.9 °C 15.9 °C 1014.8 hPa Calm   1.6 km/h 100 % 0 mm
20:31 16 °C 16 °C 1015.1 hPa Calm   1.6 km/h 100 % 0 mm
20:37 16 °C 15.8 °C 1015.1 hPa SSW 1.6 km/h 3.2 km/h 99 % 0 mm
20:42 15.9 °C 15.7 °C 1015.1 hPa Calm   3.2 km/h 99 % 0 mm
20:47 15.8 °C 15.6 °C 1014.8 hPa Calm   3.2 km/h 99 % 0 mm
20:52 15.8 °C 15.6 °C 1014.8 hPa Calm   1.6 km/h 99 % 0 mm
20:57 15.8 °C 15.6 °C 1015.1 hPa Calm   1.6 km/h 99 % 0 mm
21:02 15.7 °C 15.5 °C 1015.1 hPa Calm   1.6 km/h 99 % 0 mm
21:07 15.7 °C 15.5 °C 1015.1 hPa ESE 3.2 km/h 3.2 km/h 99 % 0 mm
21:12 15.7 °C 15.7 °C 1015.5 hPa Calm   3.2 km/h 100 % 0 mm
21:17 15.8 °C 15.8 °C 1015.1 hPa Calm   3.2 km/h 100 % 0 mm
21:22 15.8 °C 15.8 °C 1015.1 hPa ESE 1.6 km/h 3.2 km/h 100 % 0 mm
21:27 15.8 °C 15.8 °C 1015.1 hPa Calm   3.2 km/h 100 % 0 mm
21:32 15.8 °C 15.8 °C 1015.1 hPa Calm   3.2 km/h 100 % 0 mm
21:37 15.8 °C 15.8 °C 1015.1 hPa SSE 1.6 km/h 3.2 km/h 100 % 0 mm
21:42 15.8 °C 15.8 °C 1015.1 hPa SE 1.6 km/h 3.2 km/h 100 % 0 mm
21:47 15.7 °C 15.7 °C 1015.1 hPa SE 1.6 km/h 3.2 km/h 100 % 0 mm
21:52 15.7 °C 15.5 °C 1015.1 hPa SSE 1.6 km/h 3.2 km/h 99 % 0 mm
21:57 15.6 °C 15.4 °C 1015.1 hPa ESE 1.6 km/h 3.2 km/h 99 % 0 mm
22:02 15.5 °C 15.3 °C 1015.1 hPa Calm   3.2 km/h 99 % 0 mm
22:07 15.4 °C 15.2 °C 1014.8 hPa Calm   3.2 km/h 99 % 0 mm
22:12 15.4 °C 15.2 °C 1014.8 hPa Calm   3.2 km/h 99 % 0 mm
22:17 15.4 °C 15.2 °C 1014.8 hPa ESE 3.2 km/h 3.2 km/h 99 % 0 mm
22:22 15.4 °C 15.4 °C 1014.8 hPa SE 1.6 km/h 4.8 km/h 100 % 0 mm
22:27 15.4 °C 15.4 °C 1014.8 hPa SE 4.8 km/h 4.8 km/h 100 % 0 mm
22:32 15.5 °C 15.5 °C 1015.1 hPa SE 1.6 km/h 8 km/h 100 % 0 mm
22:37 15.5 °C 15.5 °C 1015.1 hPa ESE 4.8 km/h 8 km/h 100 % 0 mm
22:42 15.5 °C 15.5 °C 1015.1 hPa SSE 4.8 km/h 8 km/h 100 % 0 mm
22:47 15.4 °C 15.4 °C 1015.1 hPa SSE 3.2 km/h 6.4 km/h 100 % 0 mm
22:52 15.4 °C 15.4 °C 1015.1 hPa SE 3.2 km/h 6.4 km/h 100 % 0 mm
22:57 15.4 °C 15.4 °C 1015.1 hPa SSE 1.6 km/h 6.4 km/h 100 % 0 mm
23:02 15.4 °C 15.4 °C 1014.8 hPa SE 4.8 km/h 6.4 km/h 100 % 0 mm
23:07 15.3 °C 15.3 °C 1014.8 hPa SSE 1.6 km/h 6.4 km/h 100 % 0 mm
23:12 15.2 °C 15 °C 1014.8 hPa SSE 3.2 km/h 6.4 km/h 99 % 0 mm
23:17 15.2 °C 15.2 °C 1014.8 hPa SSE 3.2 km/h 4.8 km/h 100 % 0 mm
23:22 15.2 °C 15.2 °C 1014.8 hPa Calm   4.8 km/h 100 % 0 mm
23:27 15.1 °C 15.1 °C 1014.8 hPa SE 3.2 km/h 4.8 km/h 100 % 0 mm
23:32 15.1 °C 15.1 °C 1014.8 hPa SSE 1.6 km/h 4.8 km/h 100 % 0 mm
23:38 15.1 °C 15.1 °C 1014.8 hPa Calm   4.8 km/h 100 % 0 mm
23:43 15.1 °C 15.1 °C 1014.4 hPa SSE 3.2 km/h 4.8 km/h 100 % 0 mm
23:48 15 °C 15 °C 1014.8 hPa ESE 1.6 km/h 4.8 km/h 100 % 0 mm
23:53 15 °C 15 °C 1014.4 hPa SSE 3.2 km/h 4.8 km/h 100 % 0 mm
23:54 15 °C 15 °C 1014.4 hPa ESE 8 km/h 8 km/h 100 % 0 mm
23:59 15.1 °C 15.1 °C 1014.4 hPa SSE 3.2 km/h 8 km/h 100 % 0 mm
Spring, Texas: Villages of Bridgestone
Compliments of Weather Underground - 2.75 mb

Script developed by  Jim McMurry - jmcmurry@mwt.net Adapted for the template by  Wim van der Kuil - Leuven-Template.eu

You find our weather info also at:

UK Metoffice

WeatherCloud

Weather Underground

Mid-South Weather Network

AWEKAS

Citizen Weather Observer Program (CWOP)

HAMweather, WeatherForYou, PWS Weather

Equipment we use:

Weather-station
Davis Vantage Vue

Weather-program
Meteohub

Weather-server
Debian 7.9 x86 (Guest)

Provider
DreamHost

Davis Vantage Vue

Meteohub

Debian 7.9 x86 (Guest)

DreamHost